sensor_id;sensor_type;location;lat;lon;timestamp;P1;durP1;ratioP1;P2;durP2;ratioP2
2338;SDS011;1180;51.438;6.978;2023-03-19T00:01:05;4.33;;;2.93;;
2338;SDS011;1180;51.438;6.978;2023-03-19T00:03:32;5.80;;;2.37;;
2338;SDS011;1180;51.438;6.978;2023-03-19T00:05:58;8.70;;;3.80;;
2338;SDS011;1180;51.438;6.978;2023-03-19T00:08:23;3.17;;;2.40;;
2338;SDS011;1180;51.438;6.978;2023-03-19T00:10:49;4.23;;;2.53;;
2338;SDS011;1180;51.438;6.978;2023-03-19T00:13:15;5.53;;;3.07;;
2338;SDS011;1180;51.438;6.978;2023-03-19T00:15:41;5.13;;;3.33;;
2338;SDS011;1180;51.438;6.978;2023-03-19T00:18:06;5.40;;;3.10;;
2338;SDS011;1180;51.438;6.978;2023-03-19T00:20:32;2.90;;;2.60;;
2338;SDS011;1180;51.438;6.978;2023-03-19T00:22:58;7.97;;;3.43;;
2338;SDS011;1180;51.438;6.978;2023-03-19T00:25:24;5.17;;;3.63;;
2338;SDS011;1180;51.438;6.978;2023-03-19T00:27:50;3.30;;;2.70;;
2338;SDS011;1180;51.438;6.978;2023-03-19T00:30:17;4.20;;;3.20;;
2338;SDS011;1180;51.438;6.978;2023-03-19T00:32:42;4.80;;;3.20;;
2338;SDS011;1180;51.438;6.978;2023-03-19T00:35:08;4.90;;;2.97;;
2338;SDS011;1180;51.438;6.978;2023-03-19T00:37:34;4.90;;;2.67;;
2338;SDS011;1180;51.438;6.978;2023-03-19T00:40:01;2.80;;;2.57;;
2338;SDS011;1180;51.438;6.978;2023-03-19T00:42:28;3.93;;;2.70;;
2338;SDS011;1180;51.438;6.978;2023-03-19T00:44:54;6.53;;;2.73;;
2338;SDS011;1180;51.438;6.978;2023-03-19T00:47:19;3.63;;;2.77;;
2338;SDS011;1180;51.438;6.978;2023-03-19T00:49:45;2.73;;;2.27;;
2338;SDS011;1180;51.438;6.978;2023-03-19T00:52:10;5.20;;;2.97;;
2338;SDS011;1180;51.438;6.978;2023-03-19T00:54:36;3.83;;;2.60;;
2338;SDS011;1180;51.438;6.978;2023-03-19T00:57:01;2.83;;;2.43;;
2338;SDS011;1180;51.438;6.978;2023-03-19T00:59:26;5.60;;;3.30;;
2338;SDS011;1180;51.438;6.978;2023-03-19T01:01:51;5.20;;;2.70;;
2338;SDS011;1180;51.438;6.978;2023-03-19T01:04:17;3.50;;;2.67;;
2338;SDS011;1180;51.438;6.978;2023-03-19T01:06:43;2.60;;;2.40;;
2338;SDS011;1180;51.438;6.978;2023-03-19T01:09:08;3.10;;;2.80;;
2338;SDS011;1180;51.438;6.978;2023-03-19T01:11:35;4.33;;;3.63;;
2338;SDS011;1180;51.438;6.978;2023-03-19T01:14:01;3.23;;;2.93;;
2338;SDS011;1180;51.438;6.978;2023-03-19T01:16:26;3.07;;;2.57;;
2338;SDS011;1180;51.438;6.978;2023-03-19T01:18:52;4.60;;;3.07;;
2338;SDS011;1180;51.438;6.978;2023-03-19T01:21:18;3.03;;;2.63;;
2338;SDS011;1180;51.438;6.978;2023-03-19T01:23:44;3.13;;;2.73;;
2338;SDS011;1180;51.438;6.978;2023-03-19T01:26:10;3.30;;;2.10;;
2338;SDS011;1180;51.438;6.978;2023-03-19T01:28:37;5.27;;;2.90;;
2338;SDS011;1180;51.438;6.978;2023-03-19T01:31:06;4.40;;;3.57;;
2338;SDS011;1180;51.438;6.978;2023-03-19T01:33:32;3.27;;;2.97;;
2338;SDS011;1180;51.438;6.978;2023-03-19T01:35:58;3.47;;;3.13;;
2338;SDS011;1180;51.438;6.978;2023-03-19T01:38:27;3.60;;;3.10;;
2338;SDS011;1180;51.438;6.978;2023-03-19T01:40:53;3.87;;;2.63;;
2338;SDS011;1180;51.438;6.978;2023-03-19T01:43:20;3.50;;;3.20;;
2338;SDS011;1180;51.438;6.978;2023-03-19T01:45:57;8.13;;;2.90;;
2338;SDS011;1180;51.438;6.978;2023-03-19T01:50:58;4.43;;;3.47;;
2338;SDS011;1180;51.438;6.978;2023-03-19T01:53:27;3.73;;;2.90;;
2338;SDS011;1180;51.438;6.978;2023-03-19T01:55:57;4.47;;;2.80;;
2338;SDS011;1180;51.438;6.978;2023-03-19T01:58:27;4.90;;;3.00;;
2338;SDS011;1180;51.438;6.978;2023-03-19T02:00:53;6.47;;;3.27;;
2338;SDS011;1180;51.438;6.978;2023-03-19T02:03:20;3.67;;;2.47;;
2338;SDS011;1180;51.438;6.978;2023-03-19T02:05:46;7.63;;;3.13;;
2338;SDS011;1180;51.438;6.978;2023-03-19T02:08:14;3.17;;;2.87;;
2338;SDS011;1180;51.438;6.978;2023-03-19T02:10:41;4.83;;;3.10;;
2338;SDS011;1180;51.438;6.978;2023-03-19T02:13:10;5.67;;;3.50;;
2338;SDS011;1180;51.438;6.978;2023-03-19T02:15:36;4.10;;;3.37;;
2338;SDS011;1180;51.438;6.978;2023-03-19T02:18:02;3.40;;;3.10;;
2338;SDS011;1180;51.438;6.978;2023-03-19T02:23:17;4.77;;;3.50;;
2338;SDS011;1180;51.438;6.978;2023-03-19T02:26:09;5.17;;;3.93;;
2338;SDS011;1180;51.438;6.978;2023-03-19T02:28:37;3.77;;;2.70;;
2338;SDS011;1180;51.438;6.978;2023-03-19T02:31:06;5.23;;;2.90;;
2338;SDS011;1180;51.438;6.978;2023-03-19T02:33:32;4.70;;;2.80;;
2338;SDS011;1180;51.438;6.978;2023-03-19T02:35:58;4.30;;;3.03;;
2338;SDS011;1180;51.438;6.978;2023-03-19T02:38:24;4.50;;;2.80;;
2338;SDS011;1180;51.438;6.978;2023-03-19T02:40:51;5.30;;;2.50;;
2338;SDS011;1180;51.438;6.978;2023-03-19T02:43:22;4.87;;;2.53;;
2338;SDS011;1180;51.438;6.978;2023-03-19T02:45:47;3.30;;;2.90;;
2338;SDS011;1180;51.438;6.978;2023-03-19T02:48:13;6.40;;;3.03;;
2338;SDS011;1180;51.438;6.978;2023-03-19T02:50:38;6.23;;;4.20;;
2338;SDS011;1180;51.438;6.978;2023-03-19T02:53:04;5.40;;;3.00;;
2338;SDS011;1180;51.438;6.978;2023-03-19T02:55:29;8.30;;;3.40;;
2338;SDS011;1180;51.438;6.978;2023-03-19T02:57:54;4.50;;;3.10;;
2338;SDS011;1180;51.438;6.978;2023-03-19T03:00:20;8.60;;;2.60;;
2338;SDS011;1180;51.438;6.978;2023-03-19T03:02:45;4.47;;;2.63;;
2338;SDS011;1180;51.438;6.978;2023-03-19T03:05:11;3.70;;;2.77;;
2338;SDS011;1180;51.438;6.978;2023-03-19T03:07:37;6.03;;;3.20;;
2338;SDS011;1180;51.438;6.978;2023-03-19T03:10:04;6.33;;;2.80;;
2338;SDS011;1180;51.438;6.978;2023-03-19T03:12:30;3.87;;;2.37;;
2338;SDS011;1180;51.438;6.978;2023-03-19T03:14:56;6.20;;;2.80;;
2338;SDS011;1180;51.438;6.978;2023-03-19T03:17:21;4.27;;;3.00;;
2338;SDS011;1180;51.438;6.978;2023-03-19T03:19:47;4.17;;;2.80;;
2338;SDS011;1180;51.438;6.978;2023-03-19T03:22:12;5.03;;;3.10;;
2338;SDS011;1180;51.438;6.978;2023-03-19T03:24:37;3.00;;;2.03;;
2338;SDS011;1180;51.438;6.978;2023-03-19T03:27:03;5.90;;;2.73;;
2338;SDS011;1180;51.438;6.978;2023-03-19T03:29:28;3.57;;;2.73;;
2338;SDS011;1180;51.438;6.978;2023-03-19T03:31:54;6.37;;;2.70;;
2338;SDS011;1180;51.438;6.978;2023-03-19T03:34:19;5.27;;;2.93;;
2338;SDS011;1180;51.438;6.978;2023-03-19T03:36:45;2.90;;;2.60;;
2338;SDS011;1180;51.438;6.978;2023-03-19T03:39:11;3.40;;;2.37;;
2338;SDS011;1180;51.438;6.978;2023-03-19T03:41:36;4.03;;;2.43;;
2338;SDS011;1180;51.438;6.978;2023-03-19T03:44:02;5.57;;;2.67;;
2338;SDS011;1180;51.438;6.978;2023-03-19T03:46:27;3.87;;;2.73;;
2338;SDS011;1180;51.438;6.978;2023-03-19T03:48:53;3.40;;;2.50;;
2338;SDS011;1180;51.438;6.978;2023-03-19T03:51:18;2.73;;;2.40;;
2338;SDS011;1180;51.438;6.978;2023-03-19T03:53:44;5.40;;;2.80;;
2338;SDS011;1180;51.438;6.978;2023-03-19T03:56:10;3.93;;;2.20;;
2338;SDS011;1180;51.438;6.978;2023-03-19T03:58:35;4.93;;;2.47;;
2338;SDS011;1180;51.438;6.978;2023-03-19T04:01:01;4.80;;;2.97;;
2338;SDS011;1180;51.438;6.978;2023-03-19T04:03:27;3.00;;;2.43;;
2338;SDS011;1180;51.438;6.978;2023-03-19T04:05:52;3.40;;;2.60;;
2338;SDS011;1180;51.438;6.978;2023-03-19T04:08:17;4.77;;;2.20;;
2338;SDS011;1180;51.438;6.978;2023-03-19T04:10:43;5.10;;;3.00;;
2338;SDS011;1180;51.438;6.978;2023-03-19T04:13:09;5.77;;;2.97;;
2338;SDS011;1180;51.438;6.978;2023-03-19T04:15:35;6.70;;;2.50;;
2338;SDS011;1180;51.438;6.978;2023-03-19T04:18:00;4.10;;;2.60;;
2338;SDS011;1180;51.438;6.978;2023-03-19T04:20:27;3.93;;;2.60;;
2338;SDS011;1180;51.438;6.978;2023-03-19T04:22:53;4.00;;;2.70;;
2338;SDS011;1180;51.438;6.978;2023-03-19T04:25:18;3.57;;;2.57;;
2338;SDS011;1180;51.438;6.978;2023-03-19T04:27:44;4.23;;;2.60;;
2338;SDS011;1180;51.438;6.978;2023-03-19T04:30:10;2.83;;;2.60;;
2338;SDS011;1180;51.438;6.978;2023-03-19T04:32:36;3.27;;;2.33;;
2338;SDS011;1180;51.438;6.978;2023-03-19T04:35:01;3.23;;;2.63;;
2338;SDS011;1180;51.438;6.978;2023-03-19T04:37:27;3.30;;;3.00;;
2338;SDS011;1180;51.438;6.978;2023-03-19T04:39:53;3.27;;;2.27;;
2338;SDS011;1180;51.438;6.978;2023-03-19T04:42:19;3.97;;;2.53;;
2338;SDS011;1180;51.438;6.978;2023-03-19T04:44:44;3.07;;;2.10;;
2338;SDS011;1180;51.438;6.978;2023-03-19T04:47:10;6.70;;;2.30;;
2338;SDS011;1180;51.438;6.978;2023-03-19T04:49:35;6.10;;;3.13;;
2338;SDS011;1180;51.438;6.978;2023-03-19T04:52:01;3.27;;;2.30;;
2338;SDS011;1180;51.438;6.978;2023-03-19T04:54:26;3.30;;;2.37;;
2338;SDS011;1180;51.438;6.978;2023-03-19T04:56:52;5.17;;;2.87;;
2338;SDS011;1180;51.438;6.978;2023-03-19T04:59:18;3.73;;;2.47;;
2338;SDS011;1180;51.438;6.978;2023-03-19T05:01:43;3.00;;;1.90;;
2338;SDS011;1180;51.438;6.978;2023-03-19T05:04:09;2.87;;;2.53;;
2338;SDS011;1180;51.438;6.978;2023-03-19T05:06:34;3.57;;;2.43;;
2338;SDS011;1180;51.438;6.978;2023-03-19T05:09:02;4.53;;;1.93;;
2338;SDS011;1180;51.438;6.978;2023-03-19T05:11:28;3.10;;;2.20;;
2338;SDS011;1180;51.438;6.978;2023-03-19T05:13:54;2.50;;;2.17;;
2338;SDS011;1180;51.438;6.978;2023-03-19T05:16:19;5.37;;;2.30;;
2338;SDS011;1180;51.438;6.978;2023-03-19T05:18:45;3.73;;;2.30;;
2338;SDS011;1180;51.438;6.978;2023-03-19T05:21:11;3.73;;;2.50;;
2338;SDS011;1180;51.438;6.978;2023-03-19T05:23:37;3.10;;;2.10;;
2338;SDS011;1180;51.438;6.978;2023-03-19T05:26:03;3.90;;;2.20;;
2338;SDS011;1180;51.438;6.978;2023-03-19T05:28:28;2.50;;;1.80;;
2338;SDS011;1180;51.438;6.978;2023-03-19T05:30:54;2.53;;;2.10;;
2338;SDS011;1180;51.438;6.978;2023-03-19T05:33:20;4.90;;;2.87;;
2338;SDS011;1180;51.438;6.978;2023-03-19T05:35:46;4.53;;;2.23;;
2338;SDS011;1180;51.438;6.978;2023-03-19T05:38:12;3.70;;;2.53;;
2338;SDS011;1180;51.438;6.978;2023-03-19T05:40:38;6.03;;;2.20;;
2338;SDS011;1180;51.438;6.978;2023-03-19T05:43:06;3.83;;;2.53;;
2338;SDS011;1180;51.438;6.978;2023-03-19T05:45:31;3.00;;;2.43;;
2338;SDS011;1180;51.438;6.978;2023-03-19T05:47:57;7.87;;;3.00;;
2338;SDS011;1180;51.438;6.978;2023-03-19T05:50:22;3.00;;;2.60;;
2338;SDS011;1180;51.438;6.978;2023-03-19T05:52:48;5.67;;;2.70;;
2338;SDS011;1180;51.438;6.978;2023-03-19T05:55:13;4.30;;;2.23;;
2338;SDS011;1180;51.438;6.978;2023-03-19T05:57:39;3.67;;;2.43;;
2338;SDS011;1180;51.438;6.978;2023-03-19T06:00:04;3.23;;;2.47;;
2338;SDS011;1180;51.438;6.978;2023-03-19T06:02:31;3.00;;;2.60;;
2338;SDS011;1180;51.438;6.978;2023-03-19T06:04:57;3.73;;;2.80;;
2338;SDS011;1180;51.438;6.978;2023-03-19T06:07:22;3.30;;;2.63;;
2338;SDS011;1180;51.438;6.978;2023-03-19T06:09:48;4.03;;;2.50;;
2338;SDS011;1180;51.438;6.978;2023-03-19T06:12:13;3.07;;;2.77;;
2338;SDS011;1180;51.438;6.978;2023-03-19T06:14:40;3.33;;;2.90;;
2338;SDS011;1180;51.438;6.978;2023-03-19T06:17:05;4.57;;;2.70;;
2338;SDS011;1180;51.438;6.978;2023-03-19T06:19:31;5.60;;;3.10;;
2338;SDS011;1180;51.438;6.978;2023-03-19T06:21:56;3.10;;;2.80;;
2338;SDS011;1180;51.438;6.978;2023-03-19T06:24:21;5.23;;;2.70;;
2338;SDS011;1180;51.438;6.978;2023-03-19T06:26:47;4.03;;;3.20;;
2338;SDS011;1180;51.438;6.978;2023-03-19T06:29:12;3.10;;;2.90;;
2338;SDS011;1180;51.438;6.978;2023-03-19T06:31:37;6.10;;;3.70;;
2338;SDS011;1180;51.438;6.978;2023-03-19T06:34:05;5.70;;;3.10;;
2338;SDS011;1180;51.438;6.978;2023-03-19T06:36:31;7.07;;;3.40;;
2338;SDS011;1180;51.438;6.978;2023-03-19T06:38:56;4.13;;;3.20;;
2338;SDS011;1180;51.438;6.978;2023-03-19T06:41:21;2.90;;;2.60;;
2338;SDS011;1180;51.438;6.978;2023-03-19T06:43:48;4.43;;;3.10;;
2338;SDS011;1180;51.438;6.978;2023-03-19T06:46:14;4.03;;;3.20;;
2338;SDS011;1180;51.438;6.978;2023-03-19T06:48:39;3.07;;;2.77;;
2338;SDS011;1180;51.438;6.978;2023-03-19T06:51:05;3.00;;;2.70;;
2338;SDS011;1180;51.438;6.978;2023-03-19T06:53:30;5.13;;;3.40;;
2338;SDS011;1180;51.438;6.978;2023-03-19T06:55:56;4.20;;;2.90;;
2338;SDS011;1180;51.438;6.978;2023-03-19T06:58:21;5.27;;;2.70;;
2338;SDS011;1180;51.438;6.978;2023-03-19T07:00:48;5.73;;;3.00;;
2338;SDS011;1180;51.438;6.978;2023-03-19T07:03:13;3.87;;;2.90;;
2338;SDS011;1180;51.438;6.978;2023-03-19T07:05:38;5.90;;;3.87;;
2338;SDS011;1180;51.438;6.978;2023-03-19T07:08:04;3.43;;;3.13;;
2338;SDS011;1180;51.438;6.978;2023-03-19T07:10:35;3.93;;;2.73;;
2338;SDS011;1180;51.438;6.978;2023-03-19T07:13:04;3.67;;;3.37;;
2338;SDS011;1180;51.438;6.978;2023-03-19T07:15:29;3.00;;;2.80;;
2338;SDS011;1180;51.438;6.978;2023-03-19T07:17:54;3.20;;;3.00;;
2338;SDS011;1180;51.438;6.978;2023-03-19T07:20:21;4.20;;;3.40;;
2338;SDS011;1180;51.438;6.978;2023-03-19T07:22:48;5.00;;;2.80;;
2338;SDS011;1180;51.438;6.978;2023-03-19T07:25:14;4.37;;;3.70;;
2338;SDS011;1180;51.438;6.978;2023-03-19T07:27:40;4.50;;;3.73;;
2338;SDS011;1180;51.438;6.978;2023-03-19T07:30:05;5.97;;;3.97;;
2338;SDS011;1180;51.438;6.978;2023-03-19T07:32:31;3.43;;;3.17;;
2338;SDS011;1180;51.438;6.978;2023-03-19T07:34:56;3.37;;;3.00;;
2338;SDS011;1180;51.438;6.978;2023-03-19T07:37:22;3.83;;;3.07;;
2338;SDS011;1180;51.438;6.978;2023-03-19T07:39:47;3.57;;;3.10;;
2338;SDS011;1180;51.438;6.978;2023-03-19T07:42:13;3.77;;;3.20;;
2338;SDS011;1180;51.438;6.978;2023-03-19T07:44:40;4.20;;;3.40;;
2338;SDS011;1180;51.438;6.978;2023-03-19T07:47:05;6.40;;;3.60;;
2338;SDS011;1180;51.438;6.978;2023-03-19T07:49:31;4.30;;;3.20;;
2338;SDS011;1180;51.438;6.978;2023-03-19T07:51:56;4.03;;;3.27;;
2338;SDS011;1180;51.438;6.978;2023-03-19T07:54:21;4.43;;;3.87;;
2338;SDS011;1180;51.438;6.978;2023-03-19T07:56:47;4.50;;;3.67;;
2338;SDS011;1180;51.438;6.978;2023-03-19T07:59:13;3.13;;;2.83;;
2338;SDS011;1180;51.438;6.978;2023-03-19T08:01:38;5.20;;;2.73;;
2338;SDS011;1180;51.438;6.978;2023-03-19T08:04:03;5.10;;;4.17;;
2338;SDS011;1180;51.438;6.978;2023-03-19T08:06:29;5.17;;;3.57;;
2338;SDS011;1180;51.438;6.978;2023-03-19T08:08:54;4.37;;;3.23;;
2338;SDS011;1180;51.438;6.978;2023-03-19T08:11:20;3.70;;;3.23;;
2338;SDS011;1180;51.438;6.978;2023-03-19T08:13:46;4.10;;;3.30;;
2338;SDS011;1180;51.438;6.978;2023-03-19T08:16:11;3.70;;;3.33;;
2338;SDS011;1180;51.438;6.978;2023-03-19T08:18:37;3.63;;;3.23;;
2338;SDS011;1180;51.438;6.978;2023-03-19T08:21:03;4.80;;;3.40;;
2338;SDS011;1180;51.438;6.978;2023-03-19T08:23:28;3.20;;;2.97;;
2338;SDS011;1180;51.438;6.978;2023-03-19T08:25:54;3.07;;;2.70;;
2338;SDS011;1180;51.438;6.978;2023-03-19T08:28:20;3.20;;;3.00;;
2338;SDS011;1180;51.438;6.978;2023-03-19T08:30:47;3.47;;;2.70;;
2338;SDS011;1180;51.438;6.978;2023-03-19T08:33:12;6.37;;;3.67;;
2338;SDS011;1180;51.438;6.978;2023-03-19T08:35:38;4.30;;;3.63;;
2338;SDS011;1180;51.438;6.978;2023-03-19T08:38:03;5.63;;;3.60;;
2338;SDS011;1180;51.438;6.978;2023-03-19T08:40:29;3.30;;;3.00;;
2338;SDS011;1180;51.438;6.978;2023-03-19T08:42:54;5.33;;;3.40;;
2338;SDS011;1180;51.438;6.978;2023-03-19T08:45:20;2.73;;;2.53;;
2338;SDS011;1180;51.438;6.978;2023-03-19T08:47:46;4.13;;;3.77;;
2338;SDS011;1180;51.438;6.978;2023-03-19T08:50:11;3.27;;;3.07;;
2338;SDS011;1180;51.438;6.978;2023-03-19T08:52:37;3.83;;;2.87;;
2338;SDS011;1180;51.438;6.978;2023-03-19T08:55:03;3.40;;;2.83;;
2338;SDS011;1180;51.438;6.978;2023-03-19T08:57:30;3.30;;;3.00;;
2338;SDS011;1180;51.438;6.978;2023-03-19T08:59:56;2.93;;;2.70;;
2338;SDS011;1180;51.438;6.978;2023-03-19T09:02:21;2.83;;;2.63;;
2338;SDS011;1180;51.438;6.978;2023-03-19T09:04:47;6.93;;;3.30;;
2338;SDS011;1180;51.438;6.978;2023-03-19T09:07:12;3.57;;;3.27;;
2338;SDS011;1180;51.438;6.978;2023-03-19T09:09:39;3.10;;;2.90;;
2338;SDS011;1180;51.438;6.978;2023-03-19T09:12:05;6.70;;;3.50;;
2338;SDS011;1180;51.438;6.978;2023-03-19T09:14:32;7.17;;;3.73;;
2338;SDS011;1180;51.438;6.978;2023-03-19T09:16:58;4.20;;;3.80;;
2338;SDS011;1180;51.438;6.978;2023-03-19T09:19:24;2.97;;;2.70;;
2338;SDS011;1180;51.438;6.978;2023-03-19T09:21:50;3.80;;;3.50;;
2338;SDS011;1180;51.438;6.978;2023-03-19T09:24:15;3.83;;;3.13;;
2338;SDS011;1180;51.438;6.978;2023-03-19T09:26:41;4.10;;;3.17;;
2338;SDS011;1180;51.438;6.978;2023-03-19T09:29:06;3.03;;;2.73;;
2338;SDS011;1180;51.438;6.978;2023-03-19T09:31:33;4.27;;;3.60;;
2338;SDS011;1180;51.438;6.978;2023-03-19T09:33:58;5.80;;;3.53;;
2338;SDS011;1180;51.438;6.978;2023-03-19T09:36:24;3.30;;;3.00;;
2338;SDS011;1180;51.438;6.978;2023-03-19T09:38:50;3.93;;;2.90;;
2338;SDS011;1180;51.438;6.978;2023-03-19T09:41:19;2.90;;;2.70;;
2338;SDS011;1180;51.438;6.978;2023-03-19T09:46:41;2.50;;;2.30;;
2338;SDS011;1180;51.438;6.978;2023-03-19T09:49:28;3.73;;;3.00;;
2338;SDS011;1180;51.438;6.978;2023-03-19T09:52:10;2.90;;;2.57;;
2338;SDS011;1180;51.438;6.978;2023-03-19T09:54:43;5.97;;;3.77;;
2338;SDS011;1180;51.438;6.978;2023-03-19T09:57:11;3.00;;;2.80;;
2338;SDS011;1180;51.438;6.978;2023-03-19T09:59:37;3.80;;;3.50;;
2338;SDS011;1180;51.438;6.978;2023-03-19T10:10:14;3.33;;;3.00;;
2338;SDS011;1180;51.438;6.978;2023-03-19T10:23:46;3.23;;;2.97;;
2338;SDS011;1180;51.438;6.978;2023-03-19T10:26:20;3.63;;;3.33;;
2338;SDS011;1180;51.438;6.978;2023-03-19T10:29:09;3.70;;;3.40;;
2338;SDS011;1180;51.438;6.978;2023-03-19T10:31:52;3.57;;;3.27;;
2338;SDS011;1180;51.438;6.978;2023-03-19T10:34:33;3.60;;;3.30;;
2338;SDS011;1180;51.438;6.978;2023-03-19T10:37:01;3.30;;;3.00;;
2338;SDS011;1180;51.438;6.978;2023-03-19T10:39:31;3.73;;;2.80;;
2338;SDS011;1180;51.438;6.978;2023-03-19T10:44:52;3.37;;;3.07;;
2338;SDS011;1180;51.438;6.978;2023-03-19T10:47:24;3.27;;;2.70;;
2338;SDS011;1180;51.438;6.978;2023-03-19T10:49:50;2.57;;;2.40;;
2338;SDS011;1180;51.438;6.978;2023-03-19T10:52:20;3.30;;;3.03;;
2338;SDS011;1180;51.438;6.978;2023-03-19T10:54:56;3.00;;;2.80;;
2338;SDS011;1180;51.438;6.978;2023-03-19T10:57:28;4.33;;;3.00;;
2338;SDS011;1180;51.438;6.978;2023-03-19T10:59:55;2.40;;;2.20;;
2338;SDS011;1180;51.438;6.978;2023-03-19T11:02:28;3.13;;;2.93;;
2338;SDS011;1180;51.438;6.978;2023-03-19T11:07:36;3.27;;;2.83;;
2338;SDS011;1180;51.438;6.978;2023-03-19T11:10:02;3.93;;;2.80;;
2338;SDS011;1180;51.438;6.978;2023-03-19T11:12:32;3.97;;;2.43;;
2338;SDS011;1180;51.438;6.978;2023-03-19T11:14:59;3.07;;;2.77;;
2338;SDS011;1180;51.438;6.978;2023-03-19T11:22:39;2.57;;;2.37;;
2338;SDS011;1180;51.438;6.978;2023-03-19T11:25:25;2.23;;;2.07;;
2338;SDS011;1180;51.438;6.978;2023-03-19T11:28:10;2.90;;;2.07;;
2338;SDS011;1180;51.438;6.978;2023-03-19T11:36:28;1.67;;;1.50;;
2338;SDS011;1180;51.438;6.978;2023-03-19T11:44:38;2.20;;;2.00;;
2338;SDS011;1180;51.438;6.978;2023-03-19T11:50:17;2.70;;;2.40;;
2338;SDS011;1180;51.438;6.978;2023-03-19T11:56:11;4.40;;;4.00;;
2338;SDS011;1180;51.438;6.978;2023-03-19T11:58:34;3.77;;;3.20;;
2338;SDS011;1180;51.438;6.978;2023-03-19T12:07:24;4.70;;;4.07;;
2338;SDS011;1180;51.438;6.978;2023-03-19T12:10:10;5.17;;;4.70;;
2338;SDS011;1180;51.438;6.978;2023-03-19T12:12:48;5.67;;;5.17;;
2338;SDS011;1180;51.438;6.978;2023-03-19T12:21:40;6.90;;;5.60;;
2338;SDS011;1180;51.438;6.978;2023-03-19T12:27:54;6.00;;;5.40;;
2338;SDS011;1180;51.438;6.978;2023-03-19T12:30:37;7.23;;;5.60;;
2338;SDS011;1180;51.438;6.978;2023-03-19T12:36:18;9.13;;;5.27;;
2338;SDS011;1180;51.438;6.978;2023-03-19T12:38:57;8.03;;;5.87;;
2338;SDS011;1180;51.438;6.978;2023-03-19T12:41:29;6.10;;;5.57;;
2338;SDS011;1180;51.438;6.978;2023-03-19T12:44:05;6.67;;;6.10;;
2338;SDS011;1180;51.438;6.978;2023-03-19T12:51:59;6.47;;;5.53;;
2338;SDS011;1180;51.438;6.978;2023-03-19T12:54:35;5.70;;;5.20;;
2338;SDS011;1180;51.438;6.978;2023-03-19T12:57:09;5.10;;;4.60;;
2338;SDS011;1180;51.438;6.978;2023-03-19T13:04:53;5.07;;;4.37;;
2338;SDS011;1180;51.438;6.978;2023-03-19T13:10:25;4.93;;;4.00;;
2338;SDS011;1180;51.438;6.978;2023-03-19T13:12:53;4.93;;;4.43;;
2338;SDS011;1180;51.438;6.978;2023-03-19T13:15:25;5.80;;;5.20;;
2338;SDS011;1180;51.438;6.978;2023-03-19T13:23:05;5.53;;;5.03;;
2338;SDS011;1180;51.438;6.978;2023-03-19T13:25:39;4.30;;;3.90;;
2338;SDS011;1180;51.438;6.978;2023-03-19T13:28:08;4.83;;;4.30;;
2338;SDS011;1180;51.438;6.978;2023-03-19T13:30:35;4.83;;;4.43;;
2338;SDS011;1180;51.438;6.978;2023-03-19T13:33:04;5.57;;;4.53;;
2338;SDS011;1180;51.438;6.978;2023-03-19T13:38:11;4.77;;;4.37;;
2338;SDS011;1180;51.438;6.978;2023-03-19T13:40:44;4.60;;;4.20;;
2338;SDS011;1180;51.438;6.978;2023-03-19T13:43:21;4.83;;;4.00;;
2338;SDS011;1180;51.438;6.978;2023-03-19T13:46:04;3.63;;;3.33;;
2338;SDS011;1180;51.438;6.978;2023-03-19T13:49:01;4.23;;;3.83;;
2338;SDS011;1180;51.438;6.978;2023-03-19T13:51:49;3.70;;;3.40;;
2338;SDS011;1180;51.438;6.978;2023-03-19T13:54:18;3.17;;;2.87;;
2338;SDS011;1180;51.438;6.978;2023-03-19T13:59:32;2.23;;;2.03;;
2338;SDS011;1180;51.438;6.978;2023-03-19T14:02:42;2.97;;;2.77;;
2338;SDS011;1180;51.438;6.978;2023-03-19T14:07:29;3.90;;;2.93;;
2338;SDS011;1180;51.438;6.978;2023-03-19T14:23:23;4.33;;;3.10;;
2338;SDS011;1180;51.438;6.978;2023-03-19T14:28:45;3.80;;;3.20;;
2338;SDS011;1180;51.438;6.978;2023-03-19T14:31:29;2.83;;;2.63;;
2338;SDS011;1180;51.438;6.978;2023-03-19T14:36:25;5.03;;;3.63;;
2338;SDS011;1180;51.438;6.978;2023-03-19T14:38:56;3.50;;;3.20;;
2338;SDS011;1180;51.438;6.978;2023-03-19T14:41:25;5.83;;;3.70;;
2338;SDS011;1180;51.438;6.978;2023-03-19T14:47:01;5.70;;;3.90;;
2338;SDS011;1180;51.438;6.978;2023-03-19T14:52:35;6.70;;;4.53;;
2338;SDS011;1180;51.438;6.978;2023-03-19T14:55:16;5.27;;;4.73;;
2338;SDS011;1180;51.438;6.978;2023-03-19T14:57:42;5.90;;;4.30;;
2338;SDS011;1180;51.438;6.978;2023-03-19T15:00:17;4.30;;;3.90;;
2338;SDS011;1180;51.438;6.978;2023-03-19T15:02:44;4.73;;;4.33;;
2338;SDS011;1180;51.438;6.978;2023-03-19T15:08:02;4.20;;;3.80;;
2338;SDS011;1180;51.438;6.978;2023-03-19T15:10:33;3.23;;;2.93;;
2338;SDS011;1180;51.438;6.978;2023-03-19T15:16:11;3.23;;;2.80;;
2338;SDS011;1180;51.438;6.978;2023-03-19T15:18:45;3.27;;;2.97;;
2338;SDS011;1180;51.438;6.978;2023-03-19T15:21:11;4.57;;;3.60;;
2338;SDS011;1180;51.438;6.978;2023-03-19T15:23:37;4.30;;;3.53;;
2338;SDS011;1180;51.438;6.978;2023-03-19T15:26:05;3.53;;;3.27;;
2338;SDS011;1180;51.438;6.978;2023-03-19T15:28:45;5.50;;;3.47;;
2338;SDS011;1180;51.438;6.978;2023-03-19T15:31:13;4.50;;;2.90;;
2338;SDS011;1180;51.438;6.978;2023-03-19T15:33:38;4.20;;;3.10;;
2338;SDS011;1180;51.438;6.978;2023-03-19T15:38:51;2.90;;;2.63;;
2338;SDS011;1180;51.438;6.978;2023-03-19T15:41:21;2.83;;;2.63;;
2338;SDS011;1180;51.438;6.978;2023-03-19T15:43:49;2.50;;;2.30;;
2338;SDS011;1180;51.438;6.978;2023-03-19T15:46:17;4.17;;;3.87;;
2338;SDS011;1180;51.438;6.978;2023-03-19T15:49:05;4.03;;;3.10;;
2338;SDS011;1180;51.438;6.978;2023-03-19T15:51:35;4.03;;;3.20;;
2338;SDS011;1180;51.438;6.978;2023-03-19T15:54:02;4.13;;;3.57;;
2338;SDS011;1180;51.438;6.978;2023-03-19T15:56:28;3.83;;;3.17;;
2338;SDS011;1180;51.438;6.978;2023-03-19T15:58:56;3.87;;;2.57;;
2338;SDS011;1180;51.438;6.978;2023-03-19T16:01:24;3.97;;;3.30;;
2338;SDS011;1180;51.438;6.978;2023-03-19T16:03:55;3.77;;;3.43;;
2338;SDS011;1180;51.438;6.978;2023-03-19T16:06:25;3.87;;;3.53;;
2338;SDS011;1180;51.438;6.978;2023-03-19T16:08:54;5.17;;;2.87;;
2338;SDS011;1180;51.438;6.978;2023-03-19T16:14:08;4.50;;;3.17;;
2338;SDS011;1180;51.438;6.978;2023-03-19T16:16:34;4.77;;;3.80;;
2338;SDS011;1180;51.438;6.978;2023-03-19T16:19:02;3.20;;;2.87;;
2338;SDS011;1180;51.438;6.978;2023-03-19T16:24:01;4.23;;;2.97;;
2338;SDS011;1180;51.438;6.978;2023-03-19T16:31:28;4.60;;;3.47;;
2338;SDS011;1180;51.438;6.978;2023-03-19T16:33:55;4.67;;;3.70;;
2338;SDS011;1180;51.438;6.978;2023-03-19T16:36:22;6.63;;;3.70;;
2338;SDS011;1180;51.438;6.978;2023-03-19T16:38:52;3.93;;;3.53;;
2338;SDS011;1180;51.438;6.978;2023-03-19T16:43:56;4.37;;;3.97;;
2338;SDS011;1180;51.438;6.978;2023-03-19T16:46:35;7.00;;;3.37;;
2338;SDS011;1180;51.438;6.978;2023-03-19T16:49:00;4.63;;;3.93;;
2338;SDS011;1180;51.438;6.978;2023-03-19T16:51:26;4.53;;;3.80;;
2338;SDS011;1180;51.438;6.978;2023-03-19T16:53:51;4.90;;;4.10;;
2338;SDS011;1180;51.438;6.978;2023-03-19T16:56:17;6.47;;;4.90;;
2338;SDS011;1180;51.438;6.978;2023-03-19T16:58:43;5.20;;;3.83;;
2338;SDS011;1180;51.438;6.978;2023-03-19T17:01:20;5.03;;;4.63;;
2338;SDS011;1180;51.438;6.978;2023-03-19T17:03:48;5.17;;;4.20;;
2338;SDS011;1180;51.438;6.978;2023-03-19T17:06:14;5.10;;;4.60;;
2338;SDS011;1180;51.438;6.978;2023-03-19T17:08:40;5.97;;;3.70;;
2338;SDS011;1180;51.438;6.978;2023-03-19T17:11:11;4.73;;;4.03;;
2338;SDS011;1180;51.438;6.978;2023-03-19T17:13:52;6.97;;;4.57;;
2338;SDS011;1180;51.438;6.978;2023-03-19T17:16:19;7.27;;;5.80;;
2338;SDS011;1180;51.438;6.978;2023-03-19T17:18:45;4.50;;;4.07;;
2338;SDS011;1180;51.438;6.978;2023-03-19T17:21:15;4.50;;;4.10;;
2338;SDS011;1180;51.438;6.978;2023-03-19T17:23:45;7.40;;;4.70;;
2338;SDS011;1180;51.438;6.978;2023-03-19T17:26:14;5.20;;;4.70;;
2338;SDS011;1180;51.438;6.978;2023-03-19T17:28:42;5.07;;;3.87;;
2338;SDS011;1180;51.438;6.978;2023-03-19T17:33:57;4.70;;;3.53;;
2338;SDS011;1180;51.438;6.978;2023-03-19T17:36:26;5.30;;;3.13;;
2338;SDS011;1180;51.438;6.978;2023-03-19T17:38:51;4.03;;;3.63;;
2338;SDS011;1180;51.438;6.978;2023-03-19T17:41:17;3.43;;;3.10;;
2338;SDS011;1180;51.438;6.978;2023-03-19T17:43:44;3.00;;;2.30;;
2338;SDS011;1180;51.438;6.978;2023-03-19T17:46:11;3.30;;;2.90;;
2338;SDS011;1180;51.438;6.978;2023-03-19T17:48:46;2.80;;;2.60;;
2338;SDS011;1180;51.438;6.978;2023-03-19T17:51:12;4.43;;;2.77;;